Time;durP1;ratioP1;P1;durP2;ratioP2;P2;SDS_P1;SDS_P2;PMS_P1;PMS_P2;Temp;Humidity;BMP_temperature;BMP_pressure;BME280_temperature;BME280_humidity;BME280_pressure;Samples;Min_cycle;Max_cycle;Signal;HPM_P1;HPM_P2
2022/12/26 00:01:18;;;;;;;39.08;16.90;;;8.80;99.90;;;;;;5088960;28;20043;-62
2022/12/26 00:03:44;;;;;;;44.03;17.58;;;;;;;;;;5089023;28;20035;-63
2022/12/26 00:06:14;;;;;;;47.88;17.83;;;;;;;;;;5078689;28;20039;-64
2022/12/26 00:08:40;;;;;;;41.13;16.90;;;8.70;99.90;;;;;;5093480;28;20119;-63
2022/12/26 00:11:06;;;;;;;41.58;18.02;;;;;;;;;;5088660;28;20055;-63
2022/12/26 00:13:34;;;;;;;39.97;17.35;;;8.70;99.90;;;;;;5101807;28;20043;-63
2022/12/26 00:16:11;;;;;;;47.20;17.95;;;8.70;99.90;;;;;;5094176;28;20323;-63
2022/12/26 00:18:38;;;;;;;42.25;18.08;;;;;;;;;;5095228;28;20123;-63
2022/12/26 00:21:04;;;;;;;44.28;18.40;;;;;;;;;;5069701;28;20497;-63
2022/12/26 00:23:31;;;;;;;44.67;17.55;;;;;;;;;;5069882;28;20440;-63
2022/12/26 00:26:02;;;;;;;40.78;17.83;;;;;;;;;;5087745;28;20039;-63
2022/12/26 00:28:27;;;;;;;51.22;19.95;;;;;;;;;;5069714;28;20409;-64
2022/12/26 00:30:53;;;;;;;58.67;19.67;;;;;;;;;;5102163;28;20056;-62
2022/12/26 00:33:19;;;;;;;52.40;19.13;;;;;;;;;;5069816;28;20551;-63
2022/12/26 00:35:45;;;;;;;75.03;20.42;;;8.90;99.90;;;;;;5088031;28;20044;-63
2022/12/26 00:38:11;;;;;;;61.42;19.23;;;;;;;;;;5073507;28;20258;-63
2022/12/26 00:40:42;;;;;;;64.95;19.63;;;;;;;;;;5069635;28;20052;-63
2022/12/26 00:43:08;;;;;;;57.45;19.52;;;;;;;;;;5092426;28;20043;-63
2022/12/26 00:45:34;;;;;;;52.05;18.88;;;;;;;;;;5078529;28;20044;-63
2022/12/26 00:48:00;;;;;;;51.58;18.10;;;;;;;;;;5068965;28;20047;-63
2022/12/26 00:50:26;;;;;;;53.42;18.77;;;8.70;99.90;;;;;;5087739;28;20508;-62
2022/12/26 00:52:52;;;;;;;54.72;19.27;;;;;;;;;;5069270;28;20044;-63
2022/12/26 00:55:18;;;;;;;49.60;18.63;;;;;;;;;;5069158;28;20046;-62
2022/12/26 00:57:44;;;;;;;55.28;19.48;;;8.90;99.90;;;;;;5068862;28;20054;-63
2022/12/26 01:00:10;;;;;;;58.00;18.77;;;;;;;;;;5068838;28;20075;-62
2022/12/26 01:02:39;;;;;;;53.00;16.65;;;;;;;;;;5068009;28;20084;-62
2022/12/26 01:05:10;;;;;;;65.57;17.63;;;;;;;;;;5069109;28;20386;-61
2022/12/26 01:07:36;;;;;;;58.63;18.25;;;;;;;;;;5072982;28;20561;-62
2022/12/26 01:10:03;;;;;;;56.50;19.10;;;;;;;;;;5087140;28;20105;-63
2022/12/26 01:12:30;;;;;;;59.33;19.20;;;;;;;;;;5086918;28;20123;-63
2022/12/26 01:14:56;;;;;;;58.78;19.50;;;;;;;;;;5064929;28;20040;-63
2022/12/26 01:17:22;;;;;;;62.30;20.80;;;;;;;;;;5083569;28;20131;-62
2022/12/26 01:19:48;;;;;;;68.40;22.17;;;;;;;;;;5068656;28;20127;-62
2022/12/26 01:22:14;;;;;;;53.75;19.38;;;;;;;;;;5086608;28;20044;-63
2022/12/26 01:24:40;;;;;;;59.25;20.63;;;;;;;;;;5086987;28;20409;-63
2022/12/26 01:27:06;;;;;;;54.67;18.05;;;;;;;;;;5086819;28;20131;-62
2022/12/26 01:29:32;;;;;;;45.30;17.30;;;;;;;;;;5082861;28;20058;-63
2022/12/26 01:31:58;;;;;;;52.58;19.02;;;;;;;;;;5098009;28;20059;-63
2022/12/26 01:34:24;;;;;;;41.42;17.05;;;;;;;;;;5071556;28;20454;-63
2022/12/26 01:36:51;;;;;;;43.38;16.20;;;;;;;;;;5078156;28;20050;-62
2022/12/26 01:39:17;;;;;;;42.50;16.55;;;;;;;;;;5091963;28;20517;-63
2022/12/26 01:41:43;;;;;;;44.58;17.45;;;;;;;;;;5087342;28;20040;-63
2022/12/26 01:44:28;;;;;;;38.00;16.08;;;;;;;;;;5082479;28;20043;-63
2022/12/26 01:46:54;;;;;;;42.83;17.63;;;;;;;;;;5068532;28;20420;-63
2022/12/26 01:49:29;;;;;;;44.75;17.42;;;9.00;99.90;;;;;;5087211;28;20040;-63
2022/12/26 01:51:57;;;;;;;44.23;17.33;;;;;;;;;;5073990;28;20048;-63
2022/12/26 01:54:24;;;;;;;39.83;17.92;;;;;;;;;;5096378;28;20273;-62
2022/12/26 01:56:50;;;;;;;48.85;19.02;;;;;;;;;;5072759;28;20160;-62
2022/12/26 01:59:25;;;;;;;45.22;18.25;;;;;;;;;;5086742;28;20043;-62
2022/12/26 02:01:52;;;;;;;46.63;18.42;;;8.90;99.90;;;;;;5086975;28;20048;-62
2022/12/26 02:07:09;;;;;;;44.60;17.52;;;;;;;;;;5089289;28;20374;-63
2022/12/26 02:09:36;;;;;;;34.40;16.40;;;;;;;;;;5099083;28;20506;-62
2022/12/26 02:12:04;;;;;;;37.90;17.75;;;;;;;;;;5087371;28;20040;-62
2022/12/26 02:14:31;;;;;;;38.97;17.63;;;;;;;;;;5091113;28;20044;-63
2022/12/26 02:16:57;;;;;;;37.78;17.33;;;9.00;99.90;;;;;;5072870;28;20082;-62
2022/12/26 02:19:33;;;;;;;40.85;18.33;;;;;;;;;;5090625;28;20216;-62
2022/12/26 02:22:12;;;;;;;41.92;18.38;;;;;;;;;;5072771;28;20135;-62
2022/12/26 02:25:16;;;;;;;37.03;18.08;;;9.00;99.90;;;;;;5059571;28;20052;-62
2022/12/26 02:28:21;;;;;;;42.50;19.75;;;9.00;99.90;;;;;;5091022;28;20044;-62
2022/12/26 02:30:53;;;;;;;45.53;19.65;;;;;;;;;;5090850;28;20044;-62
2022/12/26 02:33:41;;;;;;;46.08;20.75;;;9.00;99.90;;;;;;5072351;28;20044;-62
2022/12/26 02:36:13;;;;;;;49.35;21.42;;;;;;;;;;5090671;28;20036;-62
2022/12/26 02:39:11;;;;;;;44.92;22.27;;;9.10;99.90;;;;;;5090471;28;20113;-62
2022/12/26 02:41:37;;;;;;;47.28;23.25;;;;;;;;;;5058198;28;20087;-63
2022/12/26 02:47:14;;;;;;;49.70;22.05;;;;;;;;;;5061586;28;20482;-62
2022/12/26 03:15:12;;;;;;;51.70;23.27;;;9.30;99.90;;;;;;5093119;28;20473;-63
2022/12/26 03:17:42;;;;;;;46.83;22.83;;;9.00;99.90;;;;;;5098565;28;20559;-62
2022/12/26 03:20:11;;;;;;;47.80;21.05;;;;;;;;;;5089259;28;20115;-62
2022/12/26 03:22:45;;;;;;;49.70;23.02;;;9.20;99.90;;;;;;5071102;28;20048;-63
2022/12/26 03:28:07;;;;;;;55.60;24.80;;;;;;;;;;5089153;28;20048;-63
2022/12/26 03:30:48;;;;;;;50.08;23.40;;;9.30;99.90;;;;;;5070989;28;20068;-62
2022/12/26 03:36:00;;;;;;;;;;;;;;;;;;5059559;28;20122;-62
2022/12/26 03:38:36;;;;;;;59.47;24.75;;;;;;;;;;5084949;28;20006;-63
2022/12/26 04:19:27;;;;;;;59.47;25.45;;;;;;;;;;5060492;28;20044;-62
2022/12/26 04:44:26;;;;;;;;;;;;;;;;;;5070801;28;20044;-62
2022/12/26 04:46:53;;;;;;;46.40;23.02;;;;;;;;;;5091715;28;19927;-62
2022/12/26 04:52:07;;;;;;;50.72;24.45;;;9.10;99.90;;;;;;5066157;28;20080;-62
2022/12/26 04:54:33;;;;;;;46.25;24.08;;;;;;;;;;5087902;28;20075;-63
2022/12/26 04:56:59;;;;;;;48.20;24.67;;;;;;;;;;5091467;28;20087;-62
2022/12/26 04:59:25;;;;;;;47.65;24.52;;;9.10;99.90;;;;;;5069530;28;20443;-62
2022/12/26 05:10:07;;;;;;;45.33;23.10;;;;;;;;;;5089464;28;20078;-62
2022/12/26 05:12:33;;;;;;;41.97;23.55;;;;;;;;;;5087351;28;20566;-62
2022/12/26 05:14:59;;;;;;;41.33;23.30;;;;;;;;;;5077810;28;20046;-62
2022/12/26 05:28:42;;;;;;;41.53;22.00;;;;;;;;;;5072848;28;20048;-62
2022/12/26 05:31:09;;;;;;;38.83;22.25;;;;;;;;;;5089367;28;20055;-63
2022/12/26 05:36:22;;;;;;;42.10;21.17;;;8.90;99.90;;;;;;5085453;28;20061;-62
2022/12/26 05:38:48;;;;;;;35.88;20.50;;;;;;;;;;5061072;28;20356;-62
2022/12/26 05:41:14;;;;;;;35.20;18.52;;;;;;;;;;5102434;28;20897;-63
2022/12/26 05:43:40;;;;;;;32.72;19.10;;;;;;;;;;5097782;28;20562;-64
2022/12/26 05:46:06;;;;;;;39.10;21.65;;;8.90;99.90;;;;;;5095999;28;20032;-64
2022/12/26 05:48:32;;;;;;;36.90;20.67;;;;;;;;;;5091614;28;20066;-64
2022/12/26 05:51:02;;;;;;;36.45;21.00;;;;;;;;;;5069620;28;20118;-65
2022/12/26 05:53:29;;;;;;;38.90;21.33;;;;;;;;;;5071729;28;20036;-66
2022/12/26 05:55:54;;;;;;;31.85;18.95;;;;;;;;;;5054756;28;20036;-64
2022/12/26 05:58:21;;;;;;;35.33;20.45;;;;;;;;;;5056060;28;20083;-63
2022/12/26 06:00:46;;;;;;;35.25;20.15;;;8.90;99.90;;;;;;5092496;28;20039;-63
2022/12/26 06:03:13;;;;;;;34.20;19.58;;;;;;;;;;5070108;28;20537;-64
2022/12/26 06:05:39;;;;;;;34.10;19.65;;;;;;;;;;5076381;28;20358;-62
2022/12/26 06:08:05;;;;;;;34.42;19.10;;;;;;;;;;5081435;28;20044;-62
2022/12/26 06:10:31;;;;;;;37.08;19.77;;;;;;;;;;5066925;28;20048;-63
2022/12/26 06:12:58;;;;;;;35.10;19.52;;;9.10;99.90;;;;;;5092848;28;20043;-62
2022/12/26 06:15:24;;;;;;;32.58;19.23;;;;;;;;;;5070169;28;20895;-62
2022/12/26 06:17:50;;;;;;;33.80;19.20;;;;;;;;;;5087007;28;20072;-63
2022/12/26 06:20:16;;;;;;;35.20;19.63;;;;;;;;;;5068671;28;20155;-63
2022/12/26 06:22:42;;;;;;;30.30;17.80;;;;;;;;;;5079515;28;20075;-62
2022/12/26 06:25:08;;;;;;;29.27;18.42;;;;;;;;;;5084698;28;20040;-65
2022/12/26 06:27:34;;;;;;;31.90;18.65;;;;;;;;;;5067020;28;20048;-63
2022/12/26 06:30:00;;;;;;;32.83;19.17;;;;;;;;;;5085926;28;20039;-64
2022/12/26 06:32:26;;;;;;;32.85;17.17;;;;;;;;;;5095047;28;20513;-62
2022/12/26 06:34:52;;;;;;;32.40;17.77;;;9.10;99.90;;;;;;5065735;28;20064;-62
2022/12/26 06:37:18;;;;;;;29.85;18.88;;;;;;;;;;5068807;28;20581;-62
2022/12/26 06:39:44;;;;;;;28.90;16.23;;;;;;;;;;5098239;28;20524;-63
2022/12/26 06:42:10;;;;;;;28.30;16.13;;;;;;;;;;5094266;28;20036;-64
2022/12/26 06:44:35;;;;;;;27.52;16.88;;;;;;;;;;5099108;28;20065;-63
2022/12/26 06:47:02;;;;;;;26.88;16.85;;;;;;;;;;5069728;28;20067;-64
2022/12/26 06:49:28;;;;;;;28.70;17.75;;;;;;;;;;5102287;28;20115;-64
2022/12/26 06:51:54;;;;;;;27.75;16.80;;;;;;;;;;5100547;28;20114;-63
2022/12/26 06:54:20;;;;;;;28.80;16.20;;;;;;;;;;5096962;28;20047;-63
2022/12/26 06:56:46;;;;;;;27.70;17.20;;;;;;;;;;5088045;28;20552;-64
2022/12/26 06:59:12;;;;;;;26.75;17.45;;;;;;;;;;5081668;28;20076;-64
2022/12/26 07:01:38;;;;;;;26.73;16.17;;;9.00;99.90;;;;;;5071783;28;20040;-64
2022/12/26 07:04:05;;;;;;;24.73;14.98;;;;;;;;;;5091423;28;20066;-63
2022/12/26 07:06:30;;;;;;;26.75;15.77;;;;;;;;;;5101492;28;20044;-61
2022/12/26 07:08:58;;;;;;;24.13;14.23;;;;;;;;;;5107653;28;20032;-64
2022/12/26 07:11:25;;;;;;;23.95;13.68;;;;;;;;;;5104134;28;20032;-65
2022/12/26 07:13:51;;;;;;;26.65;14.07;;;;;;;;;;5089591;28;20051;-63
2022/12/26 07:16:17;;;;;;;25.05;12.68;;;;;;;;;;5088817;28;20046;-63
2022/12/26 07:18:43;;;;;;;24.55;13.40;;;9.10;99.90;;;;;;5070607;28;20397;-66
2022/12/26 07:21:11;;;;;;;22.08;12.05;;;;;;;;;;5070756;28;20044;-63
2022/12/26 07:23:37;;;;;;;20.48;12.02;;;;;;;;;;5095245;28;20092;-64
2022/12/26 07:26:04;;;;;;;19.40;11.05;;;;;;;;;;5096190;28;20393;-67
2022/12/26 07:28:30;;;;;;;19.90;10.88;;;9.30;99.90;;;;;;5102882;28;20043;-65
2022/12/26 07:30:56;;;;;;;16.75;11.35;;;;;;;;;;5087509;28;20054;-65
2022/12/26 07:33:22;;;;;;;16.48;11.57;;;;;;;;;;5105163;28;20090;-65
2022/12/26 07:35:48;;;;;;;20.30;11.27;;;9.00;99.90;;;;;;5085434;28;20032;-66
2022/12/26 07:38:14;;;;;;;20.17;11.05;;;9.10;99.90;;;;;;5100504;28;20051;-65
2022/12/26 07:40:40;;;;;;;16.67;9.52;;;;;;;;;;5088182;28;20063;-65
2022/12/26 07:43:06;;;;;;;15.95;10.10;;;;;;;;;;5078957;28;20145;-65
2022/12/26 07:45:32;;;;;;;14.88;10.13;;;;;;;;;;5095746;28;20126;-64
2022/12/26 07:47:58;;;;;;;20.27;10.65;;;;;;;;;;5087207;28;20046;-64
2022/12/26 07:50:25;;;;;;;19.92;10.55;;;;;;;;;;5083054;28;20567;-64
2022/12/26 07:52:51;;;;;;;18.40;11.23;;;;;;;;;;5075670;28;20169;-66
2022/12/26 07:55:17;;;;;;;16.88;9.82;;;;;;;;;;5084999;28;20398;-64
2022/12/26 07:57:44;;;;;;;19.20;9.77;;;;;;;;;;5100865;28;20058;-64
2022/12/26 08:00:10;;;;;;;17.17;10.52;;;;;;;;;;5077625;28;20359;-65
2022/12/26 08:02:36;;;;;;;18.35;10.32;;;;;;;;;;5091538;28;20400;-64
2022/12/26 08:05:02;;;;;;;19.10;11.25;;;;;;;;;;5106337;28;20051;-62
2022/12/26 08:07:28;;;;;;;17.48;10.25;;;;;;;;;;5101213;28;20114;-64
2022/12/26 08:09:54;;;;;;;17.27;10.23;;;;;;;;;;5106411;28;20035;-63
2022/12/26 08:12:20;;;;;;;22.20;10.23;;;;;;;;;;5083680;28;20035;-65
2022/12/26 08:14:46;;;;;;;20.08;10.93;;;9.00;99.90;;;;;;5103171;28;20506;-64
2022/12/26 08:17:12;;;;;;;16.65;10.82;;;;;;;;;;5088454;28;20051;-64
2022/12/26 08:19:39;;;;;;;17.00;10.38;;;;;;;;;;5086382;28;20075;-65
2022/12/26 08:22:04;;;;;;;15.32;10.35;;;9.10;99.90;;;;;;5105120;28;20046;-62
2022/12/26 08:24:30;;;;;;;23.45;10.60;;;;;;;;;;5104029;28;20039;-61
2022/12/26 08:26:56;;;;;;;18.67;10.02;;;9.20;99.90;;;;;;5103542;28;20048;-60
2022/12/26 08:29:22;;;;;;;17.67;9.45;;;;;;;;;;5104978;28;20089;-63
2022/12/26 08:31:48;;;;;;;16.35;10.48;;;;;;;;;;5081928;28;20086;-62
2022/12/26 08:34:14;;;;;;;16.42;9.98;;;;;;;;;;5083857;28;20039;-64
2022/12/26 08:36:40;;;;;;;15.73;9.40;;;;;;;;;;5086532;28;20043;-64
2022/12/26 08:39:06;;;;;;;23.83;10.13;;;;;;;;;;5086467;28;20478;-65
2022/12/26 08:41:32;;;;;;;16.08;9.63;;;;;;;;;;5083515;28;20105;-66
2022/12/26 08:43:58;;;;;;;16.08;9.73;;;;;;;;;;5103023;28;20786;-65
2022/12/26 08:46:24;;;;;;;13.40;8.30;;;;;;;;;;5083162;28;20048;-64
2022/12/26 08:48:51;;;;;;;16.10;8.80;;;;;;;;;;5105096;28;20031;-64
2022/12/26 08:51:18;;;;;;;13.43;8.25;;;;;;;;;;5103766;28;20039;-65
2022/12/26 08:53:45;;;;;;;12.15;8.45;;;;;;;;;;5106015;28;20550;-65
2022/12/26 08:56:13;;;;;;;13.35;8.60;;;;;;;;;;5081619;28;20043;-64
2022/12/26 08:58:38;;;;;;;14.60;8.23;;;;;;;;;;5100089;28;20076;-64
2022/12/26 09:01:09;;;;;;;17.27;8.82;;;;;;;;;;5085306;28;20497;-64
2022/12/26 09:03:35;;;;;;;15.13;8.70;;;9.30;99.90;;;;;;5102375;28;20268;-65
2022/12/26 09:06:02;;;;;;;13.82;8.52;;;;;;;;;;5085192;28;20410;-64
2022/12/26 09:08:31;;;;;;;12.43;7.43;;;;;;;;;;5102140;28;20051;-64
2022/12/26 09:11:02;;;;;;;13.20;7.00;;;;;;;;;;5085128;28;20092;-66
2022/12/26 09:13:28;;;;;;;12.02;6.13;;;;;;;;;;5082951;28;20047;-63
2022/12/26 09:15:54;;;;;;;13.10;6.00;;;;;;;;;;5090497;28;20040;-64
2022/12/26 09:18:20;;;;;;;10.30;5.80;;;;;;;;;;5093088;28;20040;-61
2022/12/26 09:20:45;;;;;;;9.88;6.25;;;9.30;99.90;;;;;;5101222;28;20460;-63
2022/12/26 09:23:14;;;;;;;15.13;6.07;;;;;;;;;;5085523;28;20347;-62
2022/12/26 09:25:40;;;;;;;14.15;6.10;;;;;;;;;;5098412;28;20039;-64
2022/12/26 09:28:06;;;;;;;9.85;5.25;;;;;;;;;;5089177;28;20523;-63
2022/12/26 09:30:32;;;;;;;11.75;5.03;;;;;;;;;;5093214;28;20036;-65
2022/12/26 09:32:57;;;;;;;15.32;6.32;;;9.40;99.90;;;;;;5094388;28;20422;-66
2022/12/26 09:35:23;;;;;;;9.75;3.63;;;;;;;;;;5074170;28;20120;-65
2022/12/26 09:37:49;;;;;;;11.63;3.65;;;;;;;;;;5074783;28;20420;-63
2022/12/26 09:40:21;;;;;;;8.02;3.60;;;;;;;;;;5090962;28;20097;-63
2022/12/26 09:42:54;;;;;;;11.70;3.30;;;;;;;;;;5095384;28;20032;-64
2022/12/26 09:45:26;;;;;;;13.40;3.67;;;;;;;;;;5064974;28;20052;-65
2022/12/26 09:48:25;;;;;;;17.77;2.78;;;;;;;;;;5085659;28;20076;-65
2022/12/26 09:50:51;;;;;;;12.95;2.58;;;9.10;99.90;;;;;;5032093;28;20493;-65
2022/12/26 09:53:33;;;;;;;8.30;2.60;;;;;;;;;;5106332;28;20043;-65
2022/12/26 09:56:04;;;;;;;14.00;3.35;;;9.20;99.90;;;;;;5080716;28;20114;-64
2022/12/26 09:58:30;;;;;;;15.13;3.17;;;;;;;;;;5085390;28;20892;-65
2022/12/26 10:00:56;;;;;;;12.90;3.03;;;;;;;;;;5098488;28;20036;-64
2022/12/26 10:03:23;;;;;;;13.73;2.25;;;;;;;;;;5102284;28;20047;-65
2022/12/26 10:06:00;;;;;;;16.08;2.20;;;;;;;;;;5102312;28;20035;-65
2022/12/26 10:08:26;;;;;;;13.18;2.88;;;;;;;;;;5081248;28;20112;-65
2022/12/26 10:11:03;;;;;;;8.30;2.28;;;;;;;;;;5064149;28;20048;-65
2022/12/26 10:13:53;;;;;;;6.90;1.52;;;9.50;99.90;;;;;;5083671;28;20177;-63
2022/12/26 10:16:22;;;;;;;9.38;1.75;;;;;;;;;;5087704;28;20039;-64
2022/12/26 10:19:00;;;;;;;8.45;1.73;;;;;;;;;;5099557;28;20040;-64
2022/12/26 10:21:29;;;;;;;9.52;1.80;;;;;;;;;;5075999;28;20044;-63
2022/12/26 10:24:21;;;;;;;10.73;2.17;;;;;;;;;;5086011;28;20055;-65
2022/12/26 10:26:51;;;;;;;9.60;1.85;;;9.00;99.90;;;;;;5081981;28;20052;-64
2022/12/26 10:29:17;;;;;;;8.05;1.55;;;;;;;;;;5086375;28;20040;-63
2022/12/26 10:31:56;;;;;;;10.13;2.35;;;;;;;;;;5069666;28;20059;-65
2022/12/26 10:34:24;;;;;;;11.63;2.00;;;8.90;99.90;;;;;;5073001;28;20079;-65
2022/12/26 10:36:51;;;;;;;15.75;2.75;;;;;;;;;;5048352;28;20063;-64
2022/12/26 10:39:20;;;;;;;12.82;2.03;;;;;;;;;;5069399;28;20451;-63
2022/12/26 10:41:47;;;;;;;8.95;2.83;;;;;;;;;;5067992;28;20047;-64
2022/12/26 10:44:14;;;;;;;6.03;1.73;;;8.90;99.90;;;;;;5067965;28;20067;-65
2022/12/26 10:46:51;;;;;;;14.30;2.25;;;;;;;;;;5067938;28;20040;-64
2022/12/26 10:49:20;;;;;;;13.57;1.73;;;8.70;99.90;;;;;;5072607;28;20059;-63
2022/12/26 10:51:46;;;;;;;8.18;1.80;;;;;;;;;;5082887;28;20141;-66
2022/12/26 10:54:16;;;;;;;8.20;1.60;;;8.50;99.90;;;;;;5084379;28;20040;-63
2022/12/26 10:56:43;;;;;;;11.43;2.03;;;;;;;;;;5081273;28;20056;-64
2022/12/26 10:59:14;;;;;;;10.38;2.53;;;;;;;;;;5082903;28;20042;-65
2022/12/26 11:01:46;;;;;;;16.63;2.60;;;;;;;;;;5087003;28;20036;-65
2022/12/26 11:04:21;;;;;;;11.80;2.30;;;8.30;99.90;;;;;;5082103;28;20052;-64
2022/12/26 11:06:51;;;;;;;;;;;;;;;;;;5083688;28;20505;-65
2022/12/26 11:09:38;;;;;;;10.65;2.22;;;8.40;99.90;;;;;;5082371;28;19927;-64
2022/12/26 11:12:05;;;;;;;14.32;2.28;;;;;;;;;;5080922;28;20044;-63
2022/12/26 11:14:33;;;;;;;10.52;2.58;;;8.50;99.90;;;;;;5067376;28;20040;-65
2022/12/26 11:17:10;;;;;;;7.10;2.15;;;8.40;99.90;;;;;;5064741;28;20207;-64
2022/12/26 11:19:37;;;;;;;10.32;2.03;;;;;;;;;;5065210;28;20414;-65
2022/12/26 11:22:22;;;;;;;9.15;2.53;;;;;;;;;;5069710;28;20048;-64
2022/12/26 11:25:01;;;;;;;7.88;1.55;;;;;;;;;;5058334;28;20114;-63
2022/12/26 11:27:27;;;;;;;10.57;1.75;;;;;;;;;;5078814;28;20078;-63
2022/12/26 11:30:12;;;;;;;10.93;2.35;;;8.60;99.90;;;;;;5077515;28;20499;-63
2022/12/26 11:32:38;;;;;;;16.77;2.45;;;;;;;;;;5088740;28;20460;-63
2022/12/26 11:35:04;;;;;;;11.02;2.30;;;;;;;;;;5079806;28;20051;-63
2022/12/26 11:37:34;;;;;;;9.45;1.85;;;;;;;;;;5089998;28;20043;-64
2022/12/26 11:40:01;;;;;;;11.77;2.53;;;;;;;;;;5103766;28;20581;-64
2022/12/26 11:42:27;;;;;;;13.88;2.03;;;;;;;;;;5084686;28;20670;-63
2022/12/26 11:44:54;;;;;;;18.58;2.40;;;;;;;;;;5086936;28;20051;-64
2022/12/26 11:47:27;;;;;;;13.90;2.60;;;8.50;99.90;;;;;;5071677;28;20055;-64
2022/12/26 11:50:07;;;;;;;16.60;3.38;;;;;;;;;;5070642;28;20418;-64
2022/12/26 11:52:36;;;;;;;7.63;1.85;;;;;;;;;;5077570;28;20040;-63
2022/12/26 11:55:22;;;;;;;9.90;2.15;;;;;;;;;;5088519;28;20044;-63
2022/12/26 11:58:00;;;;;;;10.05;2.35;;;;;;;;;;5070975;28;20039;-63
2022/12/26 12:00:27;;;;;;;19.23;2.83;;;;;;;;;;5070524;28;20051;-64
2022/12/26 12:02:53;;;;;;;16.38;2.55;;;;;;;;;;5100403;28;20036;-64
2022/12/26 12:05:29;;;;;;;19.35;3.15;;;;;;;;;;5088466;28;20442;-63
2022/12/26 12:08:01;;;;;;;13.27;2.20;;;;;;;;;;5079243;28;20051;-65
2022/12/26 12:10:46;;;;;;;13.13;2.95;;;;;;;;;;5096087;28;20072;-63
2022/12/26 12:13:18;;;;;;;10.88;2.42;;;;;;;;;;5098464;28;20093;-64
2022/12/26 12:15:57;;;;;;;12.63;2.53;;;;;;;;;;5079212;28;20083;-64
2022/12/26 12:18:49;;;;;;;11.82;2.20;;;;;;;;;;5098612;28;20070;-63
2022/12/26 12:21:33;;;;;;;12.32;2.22;;;;;;;;;;5077650;28;20119;-62
2022/12/26 12:24:08;;;;;;;12.65;3.05;;;;;;;;;;5078707;28;20036;-64
2022/12/26 12:26:58;;;;;;;11.23;2.60;;;;;;;;;;5091557;28;20044;-63
2022/12/26 12:29:34;;;;;;;13.52;2.65;;;;;;;;;;5097402;28;20082;-63
2022/12/26 12:32:30;;;;;;;9.55;2.28;;;9.40;99.90;;;;;;5087668;28;20058;-63
2022/12/26 12:34:58;;;;;;;15.60;3.00;;;;;;;;;;5038579;28;20041;-63
2022/12/26 12:37:49;;;;;;;12.45;3.22;;;9.70;99.90;;;;;;5069622;28;20052;-66
2022/12/26 12:40:49;;;;;;;14.38;2.97;;;9.80;99.90;;;;;;5069627;28;20048;-63
2022/12/26 12:43:34;;;;;;;11.63;2.00;;;;;;;;;;5034424;28;20474;-64
2022/12/26 12:46:03;;;;;;;14.02;2.85;;;9.90;99.90;;;;;;5069174;28;20130;-62
2022/12/26 12:48:58;;;;;;;18.15;2.80;;;9.90;99.90;;;;;;5064300;28;20040;-63
2022/12/26 12:51:40;;;;;;;11.40;1.75;;;9.90;99.90;;;;;;5080404;28;20048;-63
2022/12/26 12:54:25;;;;;;;22.05;3.58;;;;;;;;;;5093276;28;20070;-63
2022/12/26 12:57:07;;;;;;;11.38;2.78;;;10.00;99.90;;;;;;5062984;28;20043;-63
2022/12/26 12:59:44;;;;;;;12.88;2.42;;;9.70;99.90;;;;;;5082645;28;20045;-63
2022/12/26 13:02:43;;;;;;;11.63;2.00;;;9.90;99.90;;;;;;5073404;28;20110;-66
2022/12/26 13:05:18;;;;;;;17.00;3.15;;;9.70;99.90;;;;;;5029204;28;20160;-63
2022/12/26 13:07:45;;;;;;;;;;;9.70;99.90;;;;;;5060157;28;20786;-63
2022/12/26 13:10:16;;;;;;;9.10;2.17;;;;;;;;;;5097549;28;19919;-64
2022/12/26 13:12:43;;;;;;;14.85;2.47;;;;;;;;;;5085641;28;20043;-64
2022/12/26 13:15:18;;;;;;;16.08;2.40;;;9.60;99.90;;;;;;5095899;28;20036;-63
2022/12/26 13:17:57;;;;;;;14.65;2.97;;;;;;;;;;5080536;28;20047;-63
2022/12/26 13:20:51;;;;;;;14.30;2.20;;;9.50;99.90;;;;;;5094594;28;20047;-62
2022/12/26 13:26:34;;;;;;;13.10;2.47;;;;;;;;;;5100000;28;20410;-63
2022/12/26 13:29:10;;;;;;;14.50;2.42;;;9.50;99.90;;;;;;5088298;28;20039;-62
2022/12/26 13:31:36;;;;;;;10.02;2.20;;;;;;;;;;5095894;28;20071;-64
2022/12/26 13:34:03;;;;;;;13.00;2.38;;;;;;;;;;5087270;28;20055;-67
2022/12/26 13:36:38;;;;;;;10.77;2.42;;;;;;;;;;5086810;28;20040;-65
2022/12/26 13:39:03;;;;;;;11.70;3.80;;;9.00;99.90;;;;;;5085968;28;20121;-65
2022/12/26 13:44:18;;;;;;;9.80;2.60;;;;;;;;;;5072960;28;20494;-64
2022/12/26 13:46:47;;;;;;;13.50;2.10;;;;;;;;;;5074867;28;20044;-65
2022/12/26 13:49:37;;;;;;;11.57;2.50;;;8.50;99.90;;;;;;5077737;28;20393;-61
2022/12/26 13:52:09;;;;;;;11.68;2.08;;;;;;;;;;5075102;28;20043;-61
2022/12/26 13:54:36;;;;;;;17.23;2.70;;;;;;;;;;5085753;28;20074;-63
2022/12/26 13:57:15;;;;;;;12.77;2.35;;;;;;;;;;5073999;28;20196;-62
2022/12/26 13:59:59;;;;;;;12.30;2.75;;;8.60;99.90;;;;;;5081607;28;20043;-59
2022/12/26 14:02:40;;;;;;;9.75;2.17;;;;;;;;;;5086228;28;20043;-62
2022/12/26 14:05:06;;;;;;;11.00;2.65;;;;;;;;;;5074715;28;20047;-64
2022/12/26 14:07:32;;;;;;;12.18;2.20;;;;;;;;;;5073896;28;20044;-64
2022/12/26 14:10:20;;;;;;;13.90;2.70;;;;;;;;;;5079870;28;20040;-62
2022/12/26 14:12:52;;;;;;;8.10;2.28;;;;;;;;;;5080720;28;20100;-62
2022/12/26 14:15:27;;;;;;;13.27;2.40;;;;;;;;;;5072390;28;20048;-64
2022/12/26 14:18:08;;;;;;;16.40;2.30;;;;;;;;;;5086621;28;20083;-63
2022/12/26 14:20:35;;;;;;;9.82;2.40;;;;;;;;;;5072165;28;20798;-61
2022/12/26 14:23:04;;;;;;;10.50;1.92;;;;;;;;;;5102093;28;20048;-60
2022/12/26 14:25:35;;;;;;;9.98;2.22;;;;;;;;;;5080509;28;20063;-60
2022/12/26 14:28:16;;;;;;;11.15;2.80;;;;;;;;;;5108239;28;20062;-62
2022/12/26 14:31:01;;;;;;;11.25;2.70;;;;;;;;;;5104771;28;20079;-62
2022/12/26 14:33:35;;;;;;;6.05;1.98;;;;;;;;;;5088631;28;20562;-62
2022/12/26 14:36:07;;;;;;;11.90;2.35;;;;;;;;;;5095264;28;20040;-62
2022/12/26 14:38:39;;;;;;;12.27;2.55;;;;;;;;;;5057270;28;20553;-62
2022/12/26 14:44:09;;;;;;;14.45;3.15;;;7.60;99.90;;;;;;5084313;28;20052;-62
2022/12/26 14:46:37;;;;;;;16.75;2.28;;;;;;;;;;5085631;28;20044;-63
2022/12/26 14:49:18;;;;;;;11.57;2.45;;;;;;;;;;5066368;28;20107;-64
2022/12/26 14:51:45;;;;;;;14.05;2.05;;;;;;;;;;5083770;28;20036;-64
2022/12/26 14:54:47;;;;;;;7.20;2.17;;;7.70;99.90;;;;;;5089695;28;20040;-64
2022/12/26 14:57:32;;;;;;;17.80;2.70;;;;;;;;;;5084483;28;20851;-62
2022/12/26 15:00:19;;;;;;;12.52;2.15;;;7.50;99.90;;;;;;5103128;28;20494;-63
2022/12/26 15:02:47;;;;;;;11.57;3.20;;;;;;;;;;5088701;28;20159;-62
2022/12/26 15:05:25;;;;;;;11.05;2.63;;;7.30;99.90;;;;;;5089198;28;20772;-64
2022/12/26 15:08:04;;;;;;;14.02;2.38;;;;;;;;;;5084534;28;20071;-65
2022/12/26 15:10:42;;;;;;;8.95;2.03;;;;;;;;;;5101735;28;20036;-65
2022/12/26 15:13:23;;;;;;;11.75;2.33;;;;;;;;;;5088576;28;20043;-64
2022/12/26 15:15:58;;;;;;;9.68;2.45;;;;;;;;;;5075435;28;20048;-64
2022/12/26 15:18:24;;;;;;;11.10;2.33;;;;;;;;;;5097259;28;20047;-63
2022/12/26 15:21:02;;;;;;;8.38;2.03;;;;;;;;;;5083557;28;20413;-65
2022/12/26 15:23:55;;;;;;;16.60;2.42;;;7.00;99.90;;;;;;5102608;28;20536;-65
2022/12/26 15:26:41;;;;;;;11.73;2.20;;;;;;;;;;5086361;28;20124;-65
2022/12/26 15:29:36;;;;;;;11.20;2.33;;;6.90;99.90;;;;;;5090076;28;20118;-64
2022/12/26 15:32:09;;;;;;;14.50;2.60;;;;;;;;;;5082932;28;20058;-63
2022/12/26 15:34:48;;;;;;;10.85;2.47;;;;;;;;;;5090102;28;20078;-62
2022/12/26 15:37:24;;;;;;;10.45;2.60;;;;;;;;;;5086842;28;20044;-62
2022/12/26 15:40:09;;;;;;;10.82;3.10;;;;;;;;;;5104501;28;20526;-63
2022/12/26 15:42:49;;;;;;;6.40;2.03;;;;;;;;;;5083178;28;20083;-62
2022/12/26 15:45:42;;;;;;;14.95;3.30;;;;;;;;;;5077541;28;20043;-63
2022/12/26 15:48:26;;;;;;;13.95;2.55;;;;;;;;;;5058414;28;20087;-62
2022/12/26 15:50:57;;;;;;;10.98;2.58;;;;;;;;;;5080908;28;20490;-60
2022/12/26 15:53:26;;;;;;;9.35;2.25;;;;;;;;;;5101586;28;20549;-59
2022/12/26 15:55:55;;;;;;;13.07;3.45;;;;;;;;;;5087276;28;20047;-61
2022/12/26 15:58:34;;;;;;;13.18;2.63;;;;;;;;;;5090618;28;20050;-61
2022/12/26 16:01:00;;;;;;;14.32;3.17;;;;;;;;;;5080111;28;20880;-61
2022/12/26 16:03:40;;;;;;;8.68;2.25;;;;;;;;;;5107163;28;20040;-61
2022/12/26 16:06:21;;;;;;;11.10;2.67;;;;;;;;;;5071098;28;20097;-60
2022/12/26 16:09:15;;;;;;;10.35;2.47;;;5.80;99.90;;;;;;5084236;28;20039;-62
2022/12/26 16:11:42;;;;;;;11.30;2.30;;;;;;;;;;5068595;28;20055;-62
2022/12/26 16:14:10;;;;;;;6.75;2.13;;;;;;;;;;5072791;28;20126;-62
2022/12/26 16:16:37;;;;;;;8.20;2.22;;;5.30;99.90;;;;;;5082938;28;20051;-63
2022/12/26 16:19:18;;;;;;;14.75;2.25;;;5.40;99.90;;;;;;5088493;28;20122;-62
2022/12/26 16:24:36;;;;;;;11.15;2.38;;;;;;;;;;5089015;28;20052;-62
2022/12/26 16:27:04;;;;;;;16.70;2.30;;;;;;;;;;5073672;28;20142;-61
2022/12/26 16:29:30;;;;;;;14.90;2.95;;;;;;;;;;5080520;28;20051;-64
2022/12/26 16:32:04;;;;;;;11.88;2.70;;;;;;;;;;5070048;28;20138;-63
2022/12/26 16:34:32;;;;;;;6.97;2.58;;;;;;;;;;5077545;28;20139;-64
2022/12/26 16:36:57;;;;;;;7.28;2.28;;;5.20;99.90;;;;;;5095553;28;20104;-64
2022/12/26 16:39:23;;;;;;;11.48;2.70;;;;;;;;;;5077348;28;20489;-64